Time;durP1;ratioP1;P1;durP2;ratioP2;P2;SDS_P1;SDS_P2;PMS_P1;PMS_P2;Temp;Humidity;BMP_temperature;BMP_pressure;BME280_temperature;BME280_humidity;BME280_pressure;Samples;Min_cycle;Max_cycle;Signal;HPM_P1;HPM_P2
2023/12/06 00:01:10;;;;;;;;;;;;;;;;;;6275691;28;19967;-87
2023/12/06 00:04:10;;;;;;;;;;;;;;;;;;6283389;28;19913;-87
2023/12/06 00:07:10;;;;;;;;;;;;;;;;;;6277363;28;19913;-88
2023/12/06 00:10:10;;;;;;;;;;;;;;;;;;6282811;28;19913;-87
2023/12/06 00:13:10;;;;;;;;;;;;;;;;;;6299109;28;19913;-88
2023/12/06 00:16:11;;;;;;;;;;;;;;;;;;6300467;28;19916;-87
2023/12/06 00:19:11;;;;;;;;;;;;;;;;;;6295869;28;19921;-86
2023/12/06 00:22:11;;;;;;;;;;;;;;;;;;6286586;28;19938;-88
2023/12/06 00:25:11;;;;;;;;;;;;;;;;;;6291924;28;19944;-87
2023/12/06 00:28:11;;;;;;;;;;;;;;;;;;6282449;28;19947;-88
2023/12/06 00:31:11;;;;;;;;;;;;;;;;;;6290877;28;19971;-88
2023/12/06 00:34:11;;;;;;;;;;;;;;;;;;6278922;28;19917;-88
2023/12/06 00:37:11;;;;;;;;;;;;;;;;;;6292840;28;19920;-88
2023/12/06 00:40:12;;;;;;;;;;;;;;;;;;6285282;28;19962;-88
2023/12/06 00:43:12;;;;;;;;;;;;;;;;;;6281702;28;19920;-88
2023/12/06 00:46:12;;;;;;;;;;;;;;;;;;6257147;28;19912;-88
2023/12/06 00:49:12;;;;;;;;;;;;;;;;;;6291679;28;19912;-88
2023/12/06 00:52:12;;;;;;;;;;;;;;;;;;6299870;28;19913;-88
2023/12/06 00:55:12;;;;;;;;;;;;;;;;;;6278544;28;19913;-88
2023/12/06 00:58:12;;;;;;;;;;;;;;;;;;6276038;28;19988;-89
2023/12/06 01:01:13;;;;;;;;;;;;;;;;;;6275078;28;19917;-88
2023/12/06 01:04:13;;;;;;;;;;;;;;;;;;6280852;28;19963;-89
2023/12/06 01:07:13;;;;;;;;;;;;;;;;;;6291517;28;19962;-87
2023/12/06 01:10:13;;;;;;;;;;;;;;;;;;6299667;28;19956;-89
2023/12/06 01:13:13;;;;;;;;;;;;;;;;;;6275563;28;19913;-81
2023/12/06 01:16:13;;;;;;;;;;;;;;;;;;6273779;28;19913;-81
2023/12/06 01:19:15;;;;;;;;;;;;;;;;;;6277914;28;19927;-81
2023/12/06 01:22:15;;;;;;;;;;;;;;;;;;6274976;28;19909;-81
2023/12/06 01:25:15;;;;;;;;;;;;;;;;;;6282271;28;19974;-81
2023/12/06 01:28:15;;;;;;;;;;;;;;;;;;6274718;28;19913;-81
2023/12/06 01:31:15;;;;;;;;;;;;;;;;;;6284005;28;19921;-81
2023/12/06 01:34:15;;;;;;;;;;;;;;;;;;6289527;28;19912;-81
2023/12/06 01:37:15;;;;;;;;;;;;;;;;;;6298800;28;19908;-81
2023/12/06 01:40:16;;;;;;;;;;;;;;;;;;6299134;28;19931;-81
2023/12/06 01:43:16;;;;;;;;;;;;;;;;;;6284769;28;19913;-81
2023/12/06 01:46:16;;;;;;;;;;;;;;;;;;6297221;28;19913;-81
2023/12/06 01:49:16;;;;;;;;;;;;;;;;;;6297649;28;19912;-81
2023/12/06 01:52:16;;;;;;;;;;;;;;;;;;6295054;28;20388;-81
2023/12/06 01:55:16;;;;;;;;;;;;;;;;;;6269145;28;20381;-82
2023/12/06 01:58:16;;;;;;;;;;;;;;;;;;6302245;28;20356;-81
2023/12/06 02:01:17;;;;;;;;;;;;;;;;;;6307607;28;19944;-81
2023/12/06 02:04:17;;;;;;;;;;;;;;;;;;6283506;28;20379;-81
2023/12/06 02:07:17;;;;;;;;;;;;;;;;;;6290468;28;19919;-81
2023/12/06 02:10:17;;;;;;;;;;;;;;;;;;6287886;28;19909;-81
2023/12/06 02:13:17;;;;;;;;;;;;;;;;;;6273060;28;19928;-81
2023/12/06 02:16:17;;;;;;;;;;;;;;;;;;6271600;28;19917;-81
2023/12/06 02:19:18;;;;;;;;;;;;;;;;;;6287673;28;19921;-81
2023/12/06 02:22:18;;;;;;;;;;;;;;;;;;6284062;28;19936;-89
2023/12/06 02:25:18;;;;;;;;;;;;;;;;;;6280385;28;19954;-89
2023/12/06 02:28:18;;;;;;;;;;;;;;;;;;6260434;28;19908;-89
2023/12/06 02:31:18;;;;;;;;;;;;;;;;;;6278567;28;20673;-88
2023/12/06 02:34:18;;;;;;;;;;;;;;;;;;6289148;28;20262;-89
2023/12/06 02:37:18;;;;;;;;;;;;;;;;;;6294446;28;19913;-89
2023/12/06 02:40:18;;;;;;;;;;;;;;;;;;6289739;28;19913;-89
2023/12/06 02:43:19;;;;;;;;;;;;;;;;;;6276325;28;19946;-89
2023/12/06 02:46:19;;;;;;;;;;;;;;;;;;6288348;28;20371;-89
2023/12/06 02:49:19;;;;;;;;;;;;;;;;;;6255046;28;19913;-89
2023/12/06 02:52:19;;;;;;;;;;;;;;;;;;6279524;28;19912;-90
2023/12/06 02:55:19;;;;;;;;;;;;;;;;;;6278564;28;19971;-89
2023/12/06 02:58:19;;;;;;;;;;;;;;;;;;6296756;28;19916;-89
2023/12/06 03:01:20;;;;;;;;;;;;;;;;;;6294571;28;20016;-89
2023/12/06 03:04:20;;;;;;;;;;;;;;;;;;6296964;28;19917;-89
2023/12/06 03:07:20;;;;;;;;;;;;;;;;;;6262076;28;19920;-89
2023/12/06 03:10:20;;;;;;;;;;;;;;;;;;6277491;28;20366;-88
2023/12/06 03:13:20;;;;;;;;;;;;;;;;;;6296397;28;19955;-90
2023/12/06 03:16:20;;;;;;;;;;;;;;;;;;6288482;28;19948;-90
2023/12/06 03:19:20;;;;;;;;;;;;;;;;;;6297627;28;19966;-90
2023/12/06 03:22:21;;;;;;;;;;;;;;;;;;6269780;28;19944;-89
2023/12/06 03:25:21;;;;;;;;;;;;;;;;;;6272550;28;19917;-89
2023/12/06 03:28:21;;;;;;;;;;;;;;;;;;6276101;28;20266;-90
2023/12/06 03:31:21;;;;;;;;;;;;;;;;;;6291098;28;20404;-90
2023/12/06 03:34:21;;;;;;;;;;;;;;;;;;6297709;28;20372;-89
2023/12/06 03:37:22;;;;;;;;;;;;;;;;;;6298181;28;20054;-90
2023/12/06 03:40:22;;;;;;;;;;;;;;;;;;6281154;28;19975;-89
2023/12/06 03:43:22;;;;;;;;;;;;;;;;;;6275758;28;19966;-90
2023/12/06 03:46:22;;;;;;;;;;;;;;;;;;6282139;28;19916;-89
2023/12/06 03:49:22;;;;;;;;;;;;;;;;;;6272912;28;19909;-89
2023/12/06 03:52:22;;;;;;;;;;;;;;;;;;6273227;28;19912;-89
2023/12/06 03:55:24;;;;;;;;;;;;;;;;;;6278702;28;20285;-89
2023/12/06 03:58:24;;;;;;;;;;;;;;;;;;6281745;28;20027;-89
2023/12/06 04:01:24;;;;;;;;;;;;;;;;;;6277417;28;20274;-88
2023/12/06 04:04:25;;;;;;;;;;;;;;;;;;6297615;28;19917;-89
2023/12/06 04:07:25;;;;;;;;;;;;;;;;;;6291088;28;19909;-89
2023/12/06 04:10:25;;;;;;;;;;;;;;;;;;6272955;28;20004;-89
2023/12/06 04:13:25;;;;;;;;;;;;;;;;;;6272310;28;20015;-89
2023/12/06 04:16:25;;;;;;;;;;;;;;;;;;6277890;28;20003;-89
2023/12/06 04:19:25;;;;;;;;;;;;;;;;;;6270208;28;20010;-89
2023/12/06 04:22:25;;;;;;;;;;;;;;;;;;6290470;28;20384;-89
2023/12/06 04:25:25;;;;;;;;;;;;;;;;;;6276905;28;20435;-89
2023/12/06 04:28:26;;;;;;;;;;;;;;;;;;6272561;28;19913;-89
2023/12/06 04:31:26;;;;;;;;;;;;;;;;;;6287544;28;20310;-88
2023/12/06 04:34:26;;;;;;;;;;;;;;;;;;6279413;28;20292;-88
2023/12/06 04:37:26;;;;;;;;;;;;;;;;;;6297615;28;20348;-88
2023/12/06 04:40:26;;;;;;;;;;;;;;;;;;6288776;28;20003;-88
2023/12/06 04:43:27;;;;;;;;;;;;;;;;;;6283070;28;19916;-88
2023/12/06 04:46:27;;;;;;;;;;;;;;;;;;6296489;28;19916;-87
2023/12/06 04:49:27;;;;;;;;;;;;;;;;;;6297954;28;19975;-88
2023/12/06 04:52:27;;;;;;;;;;;;;;;;;;6295877;28;19999;-83
2023/12/06 04:55:27;;;;;;;;;;;;;;;;;;6280300;28;20012;-86
2023/12/06 04:58:28;;;;;;;;;;;;;;;;;;6276597;28;20063;-88
2023/12/06 05:01:28;;;;;;;;;;;;;;;;;;6273152;28;20011;-88
2023/12/06 05:04:28;;;;;;;;;;;;;;;;;;6287556;28;20296;-86
2023/12/06 05:07:28;;;;;;;;;;;;;;;;;;6295445;28;19995;-86
2023/12/06 05:10:28;;;;;;;;;;;;;;;;;;6290415;28;19966;-87
2023/12/06 05:13:28;;;;;;;;;;;;;;;;;;6276832;28;19935;-87
2023/12/06 05:16:28;;;;;;;;;;;;;;;;;;6275438;28;19909;-87
2023/12/06 05:19:28;;;;;;;;;;;;;;;;;;6275561;28;20285;-86
2023/12/06 05:22:29;;;;;;;;;;;;;;;;;;6274213;28;20262;-86
2023/12/06 05:25:30;;;;;;;;;;;;;;;;;;6296345;28;20332;-85
2023/12/06 05:28:30;;;;;;;;;;;;;;;;;;6277843;28;19916;-86
2023/12/06 05:31:30;;;;;;;;;;;;;;;;;;6289514;28;19943;-86
2023/12/06 05:34:30;;;;;;;;;;;;;;;;;;6281316;28;19912;-88
2023/12/06 05:37:31;;;;;;;;;;;;;;;;;;6281507;28;20365;-86
2023/12/06 05:40:31;;;;;;;;;;;;;;;;;;6272067;28;20069;-88
2023/12/06 05:43:31;;;;;;;;;;;;;;;;;;6288212;28;19992;-88
2023/12/06 05:46:31;;;;;;;;;;;;;;;;;;6275136;28;20090;-88
2023/12/06 05:49:31;;;;;;;;;;;;;;;;;;6295726;28;20392;-88
2023/12/06 05:52:31;;;;;;;;;;;;;;;;;;6284650;28;20362;-79
2023/12/06 05:55:31;;;;;;;;;;;;;;;;;;6299687;28;19954;-79
2023/12/06 05:58:32;;;;;;;;;;;;;;;;;;6284126;28;19975;-79
2023/12/06 06:01:33;;;;;;;;;;;;;;;;;;6282671;28;19912;-78
2023/12/06 06:04:33;;;;;;;;;;;;;;;;;;6298443;28;20300;-78
2023/12/06 06:07:33;;;;;;;;;;;;;;;;;;6281952;28;20002;-78
2023/12/06 06:10:33;;;;;;;;;;;;;;;;;;6273480;28;19955;-78
2023/12/06 06:13:33;;;;;;;;;;;;;;;;;;6295483;28;19962;-78
2023/12/06 06:16:33;;;;;;;;;;;;;;;;;;6293341;28;19912;-81
2023/12/06 06:19:33;;;;;;;;;;;;;;;;;;6292745;28;19928;-79
2023/12/06 06:22:34;;;;;;;;;;;;;;;;;;6288428;28;19917;-80
2023/12/06 06:25:34;;;;;;;;;;;;;;;;;;6277979;28;19959;-78
2023/12/06 06:28:34;;;;;;;;;;;;;;;;;;6294693;28;19922;-78
2023/12/06 06:31:34;;;;;;;;;;;;;;;;;;6280757;28;19983;-78
2023/12/06 06:34:34;;;;;;;;;;;;;;;;;;6285353;28;19943;-77
2023/12/06 06:37:34;;;;;;;;;;;;;;;;;;6285370;28;19920;-78
2023/12/06 06:40:35;;;;;;;;;;;;;;;;;;6272221;28;20404;-78
2023/12/06 06:43:35;;;;;;;;;;;;;;;;;;6273045;28;20369;-78
2023/12/06 06:46:38;;;;;;;;;;;;;;;;;;6271161;28;20197;-78
2023/12/06 06:49:38;;;;;;;;;;;;;;;;;;6278596;28;19913;-78
2023/12/06 06:52:39;;;;;;;;;;;;;;;;;;6289865;28;19912;-78
2023/12/06 06:55:39;;;;;;;;;;;;;;;;;;6295195;28;19915;-78
2023/12/06 06:58:39;;;;;;;;;;;;;;;;;;6272180;28;19924;-78
2023/12/06 07:01:41;;;;;;;;;;;;;;;;;;6275658;28;19913;-78
2023/12/06 07:04:41;;;;;;;;;;;;;;;;;;6295358;28;19920;-78
2023/12/06 07:07:41;;;;;;;;;;;;;;;;;;6281111;28;20341;-79
2023/12/06 07:10:45;;;;;;;;;;;;;;;;;;6284747;28;19908;-78
2023/12/06 07:13:45;;;;;;;;;;;;;;;;;;6272672;28;19919;-78
2023/12/06 07:16:45;;;;;;;;;;;;;;;;;;6271281;28;19913;-78
2023/12/06 07:19:45;;;;;;;;;;;;;;;;;;6270626;28;19924;-78
2023/12/06 07:22:45;;;;;;;;;;;;;;;;;;6273349;28;20397;-78
2023/12/06 07:25:46;;;;;;;;;;;;;;;;;;6283604;28;19919;-78
2023/12/06 07:28:46;;;;;;;;;;;;;;;;;;6275336;28;19909;-78
2023/12/06 07:31:46;;;;;;;;;;;;;;;;;;6281149;28;19947;-78
2023/12/06 07:34:47;;;;;;;;;;;;;;;;;;6292106;28;19913;-79
2023/12/06 07:37:47;;;;;;;;;;;;;;;;;;6296087;28;19916;-78
2023/12/06 07:40:47;;;;;;;;;;;;;;;;;;6279648;28;19998;-78
2023/12/06 07:43:47;;;;;;;;;;;;;;;;;;6294295;28;19954;-78
2023/12/06 07:46:48;;;;;;;;;;;;;;;;;;6295308;28;19912;-78
2023/12/06 07:49:48;;;;;;;;;;;;;;;;;;6296909;28;19909;-78
2023/12/06 07:52:50;;;;;;;;;;;;;;;;;;6292228;28;19923;-78
2023/12/06 07:55:50;;;;;;;;;;;;;;;;;;6283416;28;20019;-78
2023/12/06 07:58:56;;;;;;;;;;;;;;;;;;6275585;28;19916;-78
2023/12/06 08:01:57;;;;;;;;;;;;;;;;;;6275269;28;19913;-79
2023/12/06 08:04:57;;;;;;;;;;;;;;;;;;6295838;28;19917;-78
2023/12/06 08:07:57;;;;;;;;;;;;;;;;;;6277556;28;19909;-78
2023/12/06 08:10:57;;;;;;;;;;;;;;;;;;6274910;28;19919;-78
2023/12/06 08:13:58;;;;;;;;;;;;;;;;;;6275570;28;19920;-78
2023/12/06 08:16:58;;;;;;;;;;;;;;;;;;6290759;28;19919;-78
2023/12/06 08:19:59;;;;;;;;;;;;;;;;;;6283411;28;19913;-78
2023/12/06 08:22:59;;;;;;;;;;;;;;;;;;6283402;28;19917;-78
2023/12/06 08:25:59;;;;;;;;;;;;;;;;;;6276272;28;19913;-79
2023/12/06 08:29:00;;;;;;;;;;;;;;;;;;6281188;28;19958;-78
2023/12/06 08:32:00;;;;;;;;;;;;;;;;;;6285446;28;19931;-78
2023/12/06 08:35:03;;;;;;;;;;;;;;;;;;6300603;28;19912;-78
2023/12/06 08:38:03;;;;;;;;;;;;;;;;;;6299196;28;19920;-80
2023/12/06 08:41:05;;;;;;;;;;;;;;;;;;6283133;28;19912;-78
2023/12/06 08:44:07;;;;;;;;;;;;;;;;;;6300853;28;20400;-78
2023/12/06 08:47:07;;;;;;;;;;;;;;;;;;6298442;28;20029;-78
2023/12/06 08:50:07;;;;;;;;;;;;;;;;;;6285036;28;19951;-78
2023/12/06 08:53:08;;;;;;;;;;;;;;;;;;6298853;28;19909;-78
2023/12/06 08:56:09;;;;;;;;;;;;;;;;;;6281822;28;19913;-78
2023/12/06 08:59:09;;;;;;;;;;;;;;;;;;6275713;28;20281;-78
2023/12/06 09:02:09;;;;;;;;;;;;;;;;;;6280414;28;19999;-78
2023/12/06 09:05:12;;;;;;;;;;;;;;;;;;6298796;28;20007;-78
2023/12/06 09:08:12;;;;;;;;;;;;;;;;;;6299025;28;19962;-78
2023/12/06 09:11:13;;;;;;;;;;;;;;;;;;6300459;28;19909;-78
2023/12/06 09:14:13;;;;;;;;;;;;;;;;;;6300253;28;20396;-78
2023/12/06 09:17:13;;;;;;;;;;;;;;;;;;6298169;28;19956;-79
2023/12/06 09:20:13;;;;;;;;;;;;;;;;;;6298862;28;19920;-78
2023/12/06 09:23:14;;;;;;;;;;;;;;;;;;6299129;28;19913;-78
2023/12/06 09:26:15;;;;;;;;;;;;;;;;;;6299542;28;19932;-78
2023/12/06 09:29:15;;;;;;;;;;;;;;;;;;6300200;28;20364;-79
2023/12/06 09:32:15;;;;;;;;;;;;;;;;;;6282801;28;19960;-78
2023/12/06 09:35:15;;;;;;;;;;;;;;;;;;6299297;28;19959;-78
2023/12/06 09:38:15;;;;;;;;;;;;;;;;;;6290753;28;19952;-78
2023/12/06 09:41:16;;;;;;;;;;;;;;;;;;6287943;28;20021;-78
2023/12/06 09:44:16;;;;;;;;;;;;;;;;;;6274214;28;19956;-78
2023/12/06 09:47:16;;;;;;;;;;;;;;;;;;6283502;28;19968;-78
2023/12/06 09:50:17;;;;;;;;;;;;;;;;;;6287551;28;19966;-78
2023/12/06 09:53:17;;;;;;;;;;;;;;;;;;6260455;28;19962;-78
2023/12/06 09:56:17;;;;;;;;;;;;;;;;;;6299285;28;19986;-78
2023/12/06 09:59:18;;;;;;;;;;;;;;;;;;6296649;28;19917;-78
2023/12/06 10:02:18;;;;;;;;;;;;;;;;;;6293094;28;19971;-79
2023/12/06 10:05:18;;;;;;;;;;;;;;;;;;6288785;28;19921;-80
2023/12/06 10:08:18;;;;;;;;;;;;;;;;;;6292153;28;20404;-78
2023/12/06 10:11:18;;;;;;;;;;;;;;;;;;6274735;28;19912;-79
2023/12/06 10:14:19;;;;;;;;;;;;;;;;;;6274607;28;19913;-79
2023/12/06 10:17:20;;;;;;;;;;;;;;;;;;6274972;28;19978;-79
2023/12/06 10:20:22;;;;;;;;;;;;;;;;;;6298877;28;19943;-79
2023/12/06 10:23:22;;;;;;;;;;;;;;;;;;6274955;28;20400;-79
2023/12/06 10:26:22;;;;;;;;;;;;;;;;;;6256602;28;19916;-79
2023/12/06 10:29:23;;;;;;;;;;;;;;;;;;6272385;28;19927;-80
2023/12/06 10:32:23;;;;;;;;;;;;;;;;;;6283023;28;19927;-88
2023/12/06 10:35:25;;;;;;;;;;;;;;;;;;6298559;28;20456;-87
2023/12/06 10:38:25;;;;;;;;;;;;;;;;;;6288110;28;19920;-88
2023/12/06 10:41:25;;;;;;;;;;;;;;;;;;6282764;28;19917;-88
2023/12/06 10:44:25;;;;;;;;;;;;;;;;;;6272755;28;19913;-87
2023/12/06 10:47:26;;;;;;;;;;;;;;;;;;6278014;28;19920;-89
2023/12/06 10:50:26;;;;;;;;;;;;;;;;;;6279013;28;19913;-89
2023/12/06 10:53:26;;;;;;;;;;;;;;;;;;6298690;28;19909;-88
2023/12/06 10:56:27;;;;;;;;;;;;;;;;;;6280642;28;19968;-87
2023/12/06 10:59:27;;;;;;;;;;;;;;;;;;6285075;28;20218;-89
2023/12/06 11:02:27;;;;;;;;;;;;;;;;;;6301637;28;19913;-89
2023/12/06 11:05:27;;;;;;;;;;;;;;;;;;6290911;28;19913;-89
2023/12/06 11:08:28;;;;;;;;;;;;;;;;;;6286227;28;19919;-89
2023/12/06 11:11:28;;;;;;;;;;;;;;;;;;6288971;28;19969;-90
2023/12/06 11:14:28;;;;;;;;;;;;;;;;;;6286416;28;19913;-90
2023/12/06 11:17:28;;;;;;;;;;;;;;;;;;6279665;28;19913;-90
2023/12/06 11:20:28;;;;;;;;;;;;;;;;;;6290649;28;19935;-90
2023/12/06 11:23:28;;;;;;;;;;;;;;;;;;6297413;28;20054;-90
2023/12/06 11:26:29;;;;;;;;;;;;;;;;;;6277139;28;20007;-88
2023/12/06 11:29:29;;;;;;;;;;;;;;;;;;6285109;28;19995;-87
2023/12/06 11:32:29;;;;;;;;;;;;;;;;;;6294890;28;19967;-87
2023/12/06 11:35:29;;;;;;;;;;;;;;;;;;6280504;28;19940;-86
2023/12/06 11:38:29;;;;;;;;;;;;;;;;;;6293130;28;19987;-87
2023/12/06 11:41:29;;;;;;;;;;;;;;;;;;6281793;28;19944;-87
2023/12/06 11:44:29;;;;;;;;;;;;;;;;;;6296332;28;19992;-86
2023/12/06 11:47:29;;;;;;;;;;;;;;;;;;6310435;28;19909;-86
2023/12/06 11:50:30;;;;;;;;;;;;;;;;;;6304941;28;20003;-86
2023/12/06 11:53:30;;;;;;;;;;;;;;;;;;6298743;28;20012;-86
2023/12/06 11:56:30;;;;;;;;;;;;;;;;;;6284556;28;19912;-86
2023/12/06 11:59:30;;;;;;;;;;;;;;;;;;6298827;28;19942;-85
2023/12/06 12:02:30;;;;;;;;;;;;;;;;;;6303518;28;19920;-85
2023/12/06 12:05:31;;;;;;;;;;;;;;;;;;6278939;28;19912;-86
2023/12/06 12:08:32;;;;;;;;;;;;;;;;;;6291452;28;19920;-86
2023/12/06 12:11:32;;;;;;;;;;;;;;;;;;6282647;28;20429;-85
2023/12/06 12:14:32;;;;;;;;;;;;;;;;;;6292637;28;20380;-85
2023/12/06 12:17:32;;;;;;;;;;;;;;;;;;6304028;28;19916;-85
2023/12/06 12:20:32;;;;;;;;;;;;;;;;;;6285033;28;19948;-85
2023/12/06 12:23:32;;;;;;;;;;;;;;;;;;6279979;28;19916;-84
2023/12/06 12:26:32;;;;;;;;;;;;;;;;;;6298431;28;19919;-86
2023/12/06 12:29:33;;;;;;;;;;;;;;;;;;6295956;28;19920;-86
2023/12/06 12:32:33;;;;;;;;;;;;;;;;;;6280770;28;19921;-86
2023/12/06 12:35:33;;;;;;;;;;;;;;;;;;6280579;28;20003;-87
2023/12/06 12:38:34;;;;;;;;;;;;;;;;;;6279656;28;19912;-86
2023/12/06 12:41:34;;;;;;;;;;;;;;;;;;6286670;28;19917;-87
2023/12/06 12:44:34;;;;;;;;;;;;;;;;;;6280114;28;19995;-86
2023/12/06 12:47:34;;;;;;;;;;;;;;;;;;6281515;28;20114;-86
2023/12/06 12:50:35;;;;;;;;;;;;;;;;;;6300385;28;19996;-86
2023/12/06 12:53:36;;;;;;;;;;;;;;;;;;6299916;28;20292;-78
2023/12/06 12:56:36;;;;;;;;;;;;;;;;;;6300445;28;19920;-78
2023/12/06 12:59:36;;;;;;;;;;;;;;;;;;6286956;28;20293;-78
2023/12/06 13:02:36;;;;;;;;;;;;;;;;;;6280751;28;19913;-78
2023/12/06 13:05:37;;;;;;;;;;;;;;;;;;6293660;28;19912;-78
2023/12/06 13:08:37;;;;;;;;;;;;;;;;;;6292496;28;19913;-78
2023/12/06 13:11:37;;;;;;;;;;;;;;;;;;6290757;28;19971;-78
2023/12/06 13:14:37;;;;;;;;;;;;;;;;;;6290957;28;19909;-78
2023/12/06 13:17:37;;;;;;;;;;;;;;;;;;6281830;28;19912;-78
2023/12/06 13:20:38;;;;;;;;;;;;;;;;;;6296778;28;19974;-78
2023/12/06 13:23:38;;;;;;;;;;;;;;;;;;6287777;28;20003;-78
2023/12/06 13:26:38;;;;;;;;;;;;;;;;;;6296336;28;19962;-78
2023/12/06 13:29:38;;;;;;;;;;;;;;;;;;6298159;28;19913;-78
2023/12/06 13:32:38;;;;;;;;;;;;;;;;;;6274474;28;19920;-78
2023/12/06 13:35:38;;;;;;;;;;;;;;;;;;6255042;28;19913;-78
2023/12/06 13:38:39;;;;;;;;;;;;;;;;;;6261292;28;19917;-78
2023/12/06 13:41:39;;;;;;;;;;;;;;;;;;6274802;28;19913;-78
2023/12/06 13:44:39;;;;;;;;;;;;;;;;;;6261222;28;20405;-78
2023/12/06 13:47:39;;;;;;;;;;;;;;;;;;6270380;28;19913;-78
2023/12/06 13:50:40;;;;;;;;;;;;;;;;;;6272547;28;19913;-78
2023/12/06 13:53:40;;;;;;;;;;;;;;;;;;6275962;28;19936;-78
2023/12/06 13:56:41;;;;;;;;;;;;;;;;;;6267507;28;19979;-78
2023/12/06 13:59:41;;;;;;;;;;;;;;;;;;6260096;28;19960;-78
2023/12/06 14:02:41;;;;;;;;;;;;;;;;;;6248031;28;19917;-87
2023/12/06 14:05:41;;;;;;;;;;;;;;;;;;6264131;28;20271;-87
2023/12/06 14:08:42;;;;;;;;;;;;;;;;;;6277090;28;19912;-87
2023/12/06 14:11:44;;;;;;;;;;;;;;;;;;6276302;28;20006;-87
2023/12/06 14:14:44;;;;;;;;;;;;;;;;;;6284045;28;19935;-86
2023/12/06 14:17:44;;;;;;;;;;;;;;;;;;6266670;28;19920;-85
2023/12/06 14:20:44;;;;;;;;;;;;;;;;;;6244004;28;19921;-86
2023/12/06 14:23:44;;;;;;;;;;;;;;;;;;6255700;28;19956;-85
2023/12/06 14:26:44;;;;;;;;;;;;;;;;;;6264422;28;19971;-87
2023/12/06 14:29:45;;;;;;;;;;;;;;;;;;6253281;28;19917;-86
2023/12/06 14:32:45;;;;;;;;;;;;;;;;;;6273081;28;20063;-86
2023/12/06 14:35:45;;;;;;;;;;;;;;;;;;6273888;28;20003;-86
2023/12/06 14:38:45;;;;;;;;;;;;;;;;;;6273062;28;19927;-86
2023/12/06 14:41:46;;;;;;;;;;;;;;;;;;6280005;28;19921;-86
2023/12/06 14:44:46;;;;;;;;;;;;;;;;;;6283375;28;19913;-84
2023/12/06 14:47:46;;;;;;;;;;;;;;;;;;6295865;28;19935;-87
2023/12/06 14:50:46;;;;;;;;;;;;;;;;;;6299289;28;19987;-90
2023/12/06 14:53:47;;;;;;;;;;;;;;;;;;6299190;28;19959;-87
2023/12/06 14:56:53;;;;;;;;;;;;;;;;;;6298287;28;20295;-82
2023/12/06 14:59:53;;;;;;;;;;;;;;;;;;6290138;28;19913;-90
2023/12/06 15:02:53;;;;;;;;;;;;;;;;;;6293755;28;19923;-89
2023/12/06 15:05:53;;;;;;;;;;;;;;;;;;6295292;28;19908;-88
2023/12/06 15:08:54;;;;;;;;;;;;;;;;;;6276890;28;19916;-88
2023/12/06 15:11:54;;;;;;;;;;;;;;;;;;6276041;28;19908;-87
2023/12/06 15:14:54;;;;;;;;;;;;;;;;;;6274782;28;19917;-87
2023/12/06 15:17:54;;;;;;;;;;;;;;;;;;6272256;28;19917;-87
2023/12/06 15:20:55;;;;;;;;;;;;;;;;;;6280896;28;20007;-86
2023/12/06 15:23:55;;;;;;;;;;;;;;;;;;6283422;28;20043;-78
2023/12/06 15:26:55;;;;;;;;;;;;;;;;;;6272305;28;20007;-78
2023/12/06 15:29:55;;;;;;;;;;;;;;;;;;6291488;28;19921;-78
2023/12/06 15:32:55;;;;;;;;;;;;;;;;;;6295487;28;19919;-78
2023/12/06 15:35:56;;;;;;;;;;;;;;;;;;6293770;28;19913;-78
2023/12/06 15:38:56;;;;;;;;;;;;;;;;;;6287585;28;20011;-78
2023/12/06 15:41:56;;;;;;;;;;;;;;;;;;6274085;28;20086;-78
2023/12/06 15:44:56;;;;;;;;;;;;;;;;;;6295712;28;20077;-78
2023/12/06 15:47:57;;;;;;;;;;;;;;;;;;6295317;28;19908;-78
2023/12/06 15:50:57;;;;;;;;;;;;;;;;;;6293009;28;19915;-78
2023/12/06 15:53:57;;;;;;;;;;;;;;;;;;6294552;28;20003;-78
2023/12/06 15:56:57;;;;;;;;;;;;;;;;;;6292001;28;19913;-79
2023/12/06 15:59:57;;;;;;;;;;;;;;;;;;6274413;28;19917;-79
2023/12/06 16:02:58;;;;;;;;;;;;;;;;;;6279328;28;20290;-77
2023/12/06 16:05:58;;;;;;;;;;;;;;;;;;6277244;28;19912;-76
2023/12/06 16:08:58;;;;;;;;;;;;;;;;;;6287135;28;19908;-77
2023/12/06 16:11:58;;;;;;;;;;;;;;;;;;6289473;28;20262;-76
2023/12/06 16:14:58;;;;;;;;;;;;;;;;;;6271414;28;19998;-76
2023/12/06 16:17:58;;;;;;;;;;;;;;;;;;6269989;28;19912;-76
2023/12/06 16:20:59;;;;;;;;;;;;;;;;;;6271958;28;19913;-76
2023/12/06 16:23:59;;;;;;;;;;;;;;;;;;6277138;28;19919;-76
2023/12/06 16:26:59;;;;;;;;;;;;;;;;;;6297199;28;19912;-76
2023/12/06 16:29:59;;;;;;;;;;;;;;;;;;6294391;28;19928;-78
2023/12/06 16:32:59;;;;;;;;;;;;;;;;;;6289107;28;19913;-77
2023/12/06 16:36:00;;;;;;;;;;;;;;;;;;6280169;28;19908;-77
2023/12/06 16:39:01;;;;;;;;;;;;;;;;;;6300811;28;19912;-76
2023/12/06 16:42:01;;;;;;;;;;;;;;;;;;6300917;28;19918;-77
2023/12/06 16:45:01;;;;;;;;;;;;;;;;;;6311668;28;19912;-77
2023/12/06 16:48:01;;;;;;;;;;;;;;;;;;6280702;28;19913;-78
2023/12/06 16:51:03;;;;;;;;;;;;;;;;;;6300433;28;19909;-78
2023/12/06 16:54:04;;;;;;;;;;;;;;;;;;6300247;28;20373;-77
2023/12/06 16:57:04;;;;;;;;;;;;;;;;;;6282252;28;19909;-77
2023/12/06 17:00:05;;;;;;;;;;;;;;;;;;6297160;28;19923;-77
2023/12/06 17:03:06;;;;;;;;;;;;;;;;;;6297981;28;19924;-77
2023/12/06 17:06:06;;;;;;;;;;;;;;;;;;6282289;28;19919;-77
2023/12/06 17:09:06;;;;;;;;;;;;;;;;;;6287985;28;20004;-77
2023/12/06 17:12:06;;;;;;;;;;;;;;;;;;6297864;28;20003;-77
2023/12/06 17:15:06;;;;;;;;;;;;;;;;;;6305142;28;19998;-77
2023/12/06 17:18:12;;;;;;;;;;;;;;;;;;6293520;28;19917;-77
2023/12/06 17:21:12;;;;;;;;;;;;;;;;;;6278593;28;19917;-77
2023/12/06 17:24:13;;;;;;;;;;;;;;;;;;6275057;28;19971;-77
2023/12/06 17:27:14;;;;;;;;;;;;;;;;;;6274705;28;19909;-78
2023/12/06 17:30:14;;;;;;;;;;;;;;;;;;6279888;28;19920;-78
2023/12/06 17:33:14;;;;;;;;;;;;;;;;;;6272176;28;19920;-76
2023/12/06 17:36:14;;;;;;;;;;;;;;;;;;6279898;28;19915;-78
2023/12/06 17:39:14;;;;;;;;;;;;;;;;;;6280754;28;19917;-78
2023/12/06 17:42:14;;;;;;;;;;;;;;;;;;6274507;28;19912;-86
2023/12/06 17:45:14;;;;;;;;;;;;;;;;;;6294036;28;19908;-86
2023/12/06 17:48:15;;;;;;;;;;;;;;;;;;6297192;28;19920;-83
2023/12/06 17:51:15;;;;;;;;;;;;;;;;;;6296480;28;20376;-83
2023/12/06 17:54:16;;;;;;;;;;;;;;;;;;6271554;28;19952;-82
2023/12/06 17:57:16;;;;;;;;;;;;;;;;;;6291887;28;19923;-83
2023/12/06 18:00:16;;;;;;;;;;;;;;;;;;6280012;28;19920;-82
2023/12/06 18:03:16;;;;;;;;;;;;;;;;;;6284965;28;19924;-79
2023/12/06 18:06:17;;;;;;;;;;;;;;;;;;6277090;28;19934;-91
2023/12/06 18:09:17;;;;;;;;;;;;;;;;;;6276252;28;19920;-90
2023/12/06 18:12:17;;;;;;;;;;;;;;;;;;6277247;28;19917;-91
2023/12/06 18:15:17;;;;;;;;;;;;;;;;;;6262345;28;19912;-91
2023/12/06 18:18:17;;;;;;;;;;;;;;;;;;6263796;28;19920;-91
2023/12/06 18:21:17;;;;;;;;;;;;;;;;;;6299043;28;19916;-90
2023/12/06 18:24:18;;;;;;;;;;;;;;;;;;6288860;28;19912;-89
2023/12/06 18:27:18;;;;;;;;;;;;;;;;;;6268357;28;19916;-89
2023/12/06 18:30:18;;;;;;;;;;;;;;;;;;6296423;28;19969;-91
2023/12/06 18:33:18;;;;;;;;;;;;;;;;;;6293788;28;19923;-90
2023/12/06 18:36:18;;;;;;;;;;;;;;;;;;6299760;28;19995;-90
2023/12/06 18:39:18;;;;;;;;;;;;;;;;;;6297249;28;19955;-90
2023/12/06 18:42:19;;;;;;;;;;;;;;;;;;6296724;28;19917;-89
2023/12/06 18:45:19;;;;;;;;;;;;;;;;;;6295891;28;19919;-90
2023/12/06 18:48:19;;;;;;;;;;;;;;;;;;6278542;28;19912;-91
2023/12/06 18:51:19;;;;;;;;;;;;;;;;;;6277755;28;19913;-91
2023/12/06 18:54:19;;;;;;;;;;;;;;;;;;6273862;28;19978;-80
2023/12/06 18:57:20;;;;;;;;;;;;;;;;;;5921701;28;10000340;-81
2023/12/06 19:00:20;;;;;;;;;;;;;;;;;;6272560;28;20365;-81
2023/12/06 19:03:20;;;;;;;;;;;;;;;;;;6285101;28;19974;-80
2023/12/06 19:06:20;;;;;;;;;;;;;;;;;;6278428;28;19955;-81
2023/12/06 19:09:20;;;;;;;;;;;;;;;;;;6272872;28;19974;-82
2023/12/06 19:12:21;;;;;;;;;;;;;;;;;;6280043;28;20030;-81
2023/12/06 19:15:21;;;;;;;;;;;;;;;;;;6267814;28;19923;-80
2023/12/06 19:18:21;;;;;;;;;;;;;;;;;;6273401;28;19928;-81
2023/12/06 19:21:22;;;;;;;;;;;;;;;;;;6287248;28;19916;-82
2023/12/06 19:24:22;;;;;;;;;;;;;;;;;;6265889;28;19912;-80
2023/12/06 19:27:22;;;;;;;;;;;;;;;;;;6275356;28;20348;-81
2023/12/06 19:30:22;;;;;;;;;;;;;;;;;;6282164;28;19955;-81
2023/12/06 19:33:22;;;;;;;;;;;;;;;;;;6292338;28;19916;-81
2023/12/06 19:36:22;;;;;;;;;;;;;;;;;;6289850;28;20043;-81
2023/12/06 19:39:23;;;;;;;;;;;;;;;;;;6270131;28;20032;-82
2023/12/06 19:42:24;;;;;;;;;;;;;;;;;;6268122;28;20354;-82
2023/12/06 19:45:25;;;;;;;;;;;;;;;;;;6298466;28;20001;-80
2023/12/06 19:48:27;;;;;;;;;;;;;;;;;;6292655;28;20361;-80
2023/12/06 19:51:28;;;;;;;;;;;;;;;;;;6275722;28;19923;-81
2023/12/06 19:54:28;;;;;;;;;;;;;;;;;;6293078;28;19913;-80
2023/12/06 19:57:29;;;;;;;;;;;;;;;;;;6293493;28;20402;-81
2023/12/06 20:00:29;;;;;;;;;;;;;;;;;;6273595;28;19921;-81
2023/12/06 20:03:29;;;;;;;;;;;;;;;;;;6287301;28;19920;-90
2023/12/06 20:06:29;;;;;;;;;;;;;;;;;;6276565;28;19959;-90
2023/12/06 20:09:29;;;;;;;;;;;;;;;;;;6280855;28;19917;-91
2023/12/06 20:12:29;;;;;;;;;;;;;;;;;;6277555;28;19916;-91
2023/12/06 20:15:30;;;;;;;;;;;;;;;;;;6287684;28;19918;-90
2023/12/06 20:18:30;;;;;;;;;;;;;;;;;;6290830;28;19917;-91
2023/12/06 20:21:30;;;;;;;;;;;;;;;;;;6297611;28;19921;-90
2023/12/06 20:24:30;;;;;;;;;;;;;;;;;;6299763;28;19923;-90
2023/12/06 20:27:30;;;;;;;;;;;;;;;;;;6287627;28;19920;-89
2023/12/06 20:30:30;;;;;;;;;;;;;;;;;;6289490;28;19975;-90